createdAt,value
2022-10-05T00:01:34.004Z,9.90
2022-10-05T00:06:35.624Z,9.89
2022-10-05T00:11:37.055Z,9.75
2022-10-05T00:16:38.761Z,9.64
2022-10-05T00:21:40.205Z,9.60
2022-10-05T00:26:41.622Z,9.58
2022-10-05T00:31:43.102Z,9.58
2022-10-05T00:36:45.708Z,9.55
2022-10-05T00:42:16.259Z,9.44
2022-10-05T00:47:23.786Z,9.33
2022-10-05T00:53:04.997Z,9.24
2022-10-05T00:58:34.567Z,9.14
2022-10-05T01:03:45.051Z,9.18
2022-10-05T01:09:07.153Z,9.17
2022-10-05T01:14:24.486Z,9.07
2022-10-05T01:19:47.682Z,9.02
2022-10-05T01:25:02.883Z,9.00
2022-10-05T01:30:20.326Z,9.03
2022-10-05T01:35:37.667Z,9.01
2022-10-05T01:40:44.482Z,8.96
2022-10-05T01:45:52.849Z,8.98
2022-10-05T01:51:11.235Z,8.98
2022-10-05T01:56:30.004Z,8.96
2022-10-05T02:01:43.008Z,8.88
2022-10-05T02:06:48.922Z,8.82
2022-10-05T02:12:02.843Z,8.83
2022-10-05T02:17:13.407Z,8.73
2022-10-05T02:22:24.030Z,8.74
2022-10-05T02:27:32.819Z,8.69
2022-10-05T02:32:41.016Z,8.65
2022-10-05T02:37:56.069Z,8.55
2022-10-05T02:43:12.207Z,8.61
2022-10-05T02:48:24.879Z,8.56
2022-10-05T02:53:52.596Z,8.45
2022-10-05T02:59:18.249Z,8.42
2022-10-05T03:04:44.807Z,8.45
2022-10-05T03:10:01.310Z,8.44
2022-10-05T03:15:53.073Z,8.45
2022-10-05T03:21:25.074Z,8.36
2022-10-05T03:26:41.521Z,8.29
2022-10-05T03:31:45.636Z,8.29
2022-10-05T03:37:10.711Z,8.24
2022-10-05T03:42:45.970Z,8.24
2022-10-05T03:48:14.823Z,8.24
2022-10-05T03:53:28.742Z,8.17
2022-10-05T03:58:39.197Z,8.20
2022-10-05T04:03:48.343Z,8.21
2022-10-05T04:09:07.161Z,8.16
2022-10-05T04:14:16.753Z,8.16
2022-10-05T04:19:43.862Z,8.20
2022-10-05T04:25:12.849Z,8.23
2022-10-05T04:30:20.206Z,8.32
2022-10-05T04:35:37.378Z,8.35
2022-10-05T04:41:14.250Z,8.29
2022-10-05T04:46:55.456Z,8.25
2022-10-05T04:52:16.521Z,8.26
2022-10-05T04:57:30.347Z,8.28
2022-10-05T05:02:52.663Z,8.28
2022-10-05T05:07:59.536Z,8.20
2022-10-05T05:13:52.427Z,8.19
2022-10-05T05:19:02.041Z,8.10
2022-10-05T05:24:09.329Z,8.15
2022-10-05T05:29:44.246Z,8.08
2022-10-05T05:34:54.879Z,8.11
2022-10-05T05:40:07.031Z,8.18
2022-10-05T05:45:30.803Z,8.35
2022-10-05T05:51:01.716Z,8.44
2022-10-05T05:56:18.902Z,8.41
2022-10-05T06:01:32.861Z,8.40
2022-10-05T06:06:48.055Z,8.49
2022-10-05T06:11:58.185Z,8.53
2022-10-05T06:17:11.490Z,8.52
2022-10-05T06:22:34.582Z,8.52
2022-10-05T06:28:14.625Z,8.68
2022-10-05T06:33:46.490Z,8.78
2022-10-05T06:39:07.826Z,8.94
2022-10-05T06:44:14.179Z,9.23
2022-10-05T06:49:29.272Z,9.51
2022-10-05T06:55:16.455Z,9.87
2022-10-05T07:00:24.567Z,10.33
2022-10-05T07:06:31.213Z,10.93
2022-10-05T07:11:36.600Z,11.34
2022-10-05T07:17:00.738Z,11.88
2022-10-05T07:22:37.774Z,12.49
2022-10-05T07:27:52.781Z,13.01
2022-10-05T07:33:46.104Z,13.25
2022-10-05T07:38:59.027Z,13.39
2022-10-05T07:44:22.904Z,13.51
2022-10-05T07:49:30.842Z,13.61
2022-10-05T07:54:50.579Z,13.67
2022-10-05T08:00:04.226Z,13.83
2022-10-05T08:05:26.222Z,14.04
2022-10-05T08:10:45.206Z,14.28
2022-10-05T08:15:53.152Z,14.42
2022-10-05T08:20:57.488Z,14.68
2022-10-05T08:26:38.456Z,14.99
2022-10-05T08:31:43.069Z,15.26
2022-10-05T08:37:23.482Z,15.45
2022-10-05T08:42:35.206Z,15.55
2022-10-05T08:48:11.639Z,15.73
2022-10-05T08:53:24.982Z,16.01
2022-10-05T08:58:37.292Z,16.21
2022-10-05T09:03:53.933Z,16.38
2022-10-05T09:09:07.921Z,16.58
2022-10-05T09:14:56.644Z,16.85
2022-10-05T09:20:26.461Z,17.05
2022-10-05T09:26:00.944Z,17.36
2022-10-05T09:31:16.312Z,17.63
2022-10-05T09:36:38.125Z,17.96
2022-10-05T09:41:58.620Z,18.32
2022-10-05T09:47:30.380Z,18.65
2022-10-05T09:52:56.409Z,19.01
2022-10-05T09:58:35.165Z,19.30
2022-10-05T10:04:06.296Z,19.60
2022-10-05T10:09:23.855Z,19.99
2022-10-05T10:15:09.482Z,20.69
2022-10-05T10:20:32.882Z,21.45
2022-10-05T10:26:05.316Z,22.90
2022-10-05T10:31:49.474Z,26.10
2022-10-05T10:37:31.387Z,27.74
2022-10-05T10:42:56.728Z,26.37
2022-10-05T10:48:31.745Z,24.81
2022-10-05T10:54:01.447Z,23.98
2022-10-05T10:59:06.682Z,25.05
2022-10-05T11:04:14.912Z,25.12
2022-10-05T11:09:58.410Z,24.20
2022-10-05T11:15:24.915Z,24.08
2022-10-05T11:20:55.551Z,24.03
2022-10-05T11:26:33.343Z,23.87
2022-10-05T11:31:50.182Z,23.62
2022-10-05T11:37:00.763Z,23.93
2022-10-05T11:42:26.753Z,23.96
2022-10-05T11:47:34.102Z,24.18
2022-10-05T11:52:42.310Z,24.26
2022-10-05T11:58:12.123Z,24.13
2022-10-05T12:03:22.862Z,24.21
2022-10-05T12:08:31.459Z,24.26
2022-10-05T12:13:44.764Z,24.30
2022-10-05T12:19:01.377Z,24.14
2022-10-05T12:24:16.221Z,24.44
2022-10-05T12:29:34.483Z,24.56
2022-10-05T12:34:38.695Z,24.68
2022-10-05T12:39:49.492Z,24.89
2022-10-05T12:45:06.112Z,25.06
2022-10-05T12:50:10.594Z,25.19
2022-10-05T12:55:21.463Z,24.92
2022-10-05T13:00:23.588Z,25.07
2022-10-05T13:05:36.422Z,24.98
2022-10-05T13:10:48.982Z,24.71
2022-10-05T13:16:16.988Z,24.55
2022-10-05T13:21:26.797Z,24.56
2022-10-05T13:26:41.908Z,24.81
2022-10-05T13:31:52.275Z,24.90
2022-10-05T13:37:30.187Z,24.95
2022-10-05T13:42:54.240Z,24.82
2022-10-05T13:48:12.559Z,24.73
2022-10-05T13:53:34.026Z,24.71
2022-10-05T13:58:50.592Z,25.03
2022-10-05T14:04:16.098Z,25.19
2022-10-05T14:09:28.292Z,25.44
2022-10-05T14:14:32.672Z,27.34
2022-10-05T14:19:45.938Z,29.19
2022-10-05T14:25:02.682Z,31.34
2022-10-05T14:30:10.211Z,29.59
2022-10-05T14:35:15.625Z,28.16
2022-10-05T14:40:29.802Z,27.57
2022-10-05T14:45:31.315Z,27.30
2022-10-05T14:50:32.760Z,27.43
2022-10-05T14:55:56.707Z,27.69
2022-10-05T15:01:10.441Z,27.59
2022-10-05T15:06:40.909Z,27.39
2022-10-05T15:11:55.317Z,26.73
2022-10-05T15:17:17.717Z,26.43
2022-10-05T15:22:30.251Z,26.71
2022-10-05T15:27:57.806Z,28.74
2022-10-05T15:33:14.350Z,32.49
2022-10-05T15:38:15.737Z,34.48
2022-10-05T15:43:22.824Z,35.27
2022-10-05T15:48:47.858Z,34.67
2022-10-05T15:53:58.470Z,31.78
2022-10-05T15:59:17.886Z,30.08
2022-10-05T16:04:54.254Z,27.47
2022-10-05T16:10:14.160Z,25.77
2022-10-05T16:15:40.108Z,24.41
2022-10-05T16:20:48.356Z,23.62
2022-10-05T16:26:37.419Z,23.00
2022-10-05T16:32:02.587Z,22.39
2022-10-05T16:37:16.085Z,21.92
2022-10-05T16:42:34.230Z,21.52
2022-10-05T16:47:54.918Z,21.13
2022-10-05T16:53:19.079Z,20.77
2022-10-05T16:58:37.995Z,20.42
2022-10-05T17:04:07.581Z,19.96
2022-10-05T17:09:43.232Z,19.63
2022-10-05T17:14:55.369Z,19.43
2022-10-05T17:20:17.091Z,19.18
2022-10-05T17:25:37.080Z,18.91
2022-10-05T17:30:46.781Z,18.63
2022-10-05T17:35:54.875Z,18.49
2022-10-05T17:41:30.758Z,18.38
2022-10-05T17:46:59.280Z,18.22
2022-10-05T17:52:06.958Z,18.06
2022-10-05T17:57:09.129Z,17.91
2022-10-05T18:02:22.711Z,17.86
2022-10-05T18:07:25.471Z,17.81
2022-10-05T18:12:45.628Z,17.65
2022-10-05T18:17:49.124Z,17.70
2022-10-05T18:22:52.316Z,17.62
2022-10-05T18:28:22.539Z,17.48
2022-10-05T18:33:52.220Z,17.21
2022-10-05T18:39:09.057Z,16.95
2022-10-05T18:44:10.608Z,16.70
2022-10-05T18:50:04.175Z,16.50
2022-10-05T18:55:12.198Z,16.34
2022-10-05T19:00:18.573Z,16.25
2022-10-05T19:05:48.916Z,16.14
2022-10-05T19:10:54.754Z,15.98
2022-10-05T19:16:20.051Z,15.92
2022-10-05T19:21:40.282Z,15.79
2022-10-05T19:27:19.432Z,15.63
2022-10-05T19:32:32.947Z,15.46
2022-10-05T19:38:15.743Z,15.45
2022-10-05T19:43:42.423Z,15.52
2022-10-05T19:49:02.561Z,15.59
2022-10-05T19:54:22.420Z,15.54
2022-10-05T19:59:28.949Z,15.27
2022-10-05T20:04:34.789Z,15.02
2022-10-05T20:09:51.244Z,14.95
2022-10-05T20:15:07.814Z,14.75
2022-10-05T20:20:34.248Z,14.62
2022-10-05T20:25:37.007Z,14.68
2022-10-05T20:30:39.260Z,14.78
2022-10-05T20:35:40.764Z,14.90
2022-10-05T20:40:42.158Z,15.01
2022-10-05T20:45:43.556Z,15.04
2022-10-05T20:50:44.948Z,15.24
2022-10-05T20:55:46.351Z,15.18
2022-10-05T21:00:47.933Z,15.03
2022-10-05T21:05:50.192Z,14.87
2022-10-05T21:10:52.323Z,14.75
2022-10-05T21:15:54.757Z,14.64
2022-10-05T21:21:01.391Z,14.80
2022-10-05T21:26:03.734Z,14.93
2022-10-05T21:31:08.903Z,15.06
2022-10-05T21:36:10.442Z,15.15
2022-10-05T21:41:12.115Z,15.10
2022-10-05T21:46:17.916Z,15.10
2022-10-05T21:51:19.979Z,15.03
2022-10-05T21:56:24.887Z,14.92
2022-10-05T22:01:26.341Z,14.83
2022-10-05T22:06:27.854Z,14.79
2022-10-05T22:11:29.432Z,14.76
2022-10-05T22:16:37.528Z,14.62
2022-10-05T22:21:39.684Z,14.37
2022-10-05T22:26:43.592Z,14.37
2022-10-05T22:31:46.877Z,14.28
2022-10-05T22:36:49.273Z,14.26
2022-10-05T22:41:51.198Z,14.15
2022-10-05T22:46:54.070Z,14.01
2022-10-05T22:51:56.435Z,13.74
2022-10-05T22:56:58.638Z,13.67
2022-10-05T23:02:00.992Z,13.58
2022-10-05T23:07:02.729Z,13.53
2022-10-05T23:12:04.904Z,13.44
2022-10-05T23:17:06.323Z,13.41
2022-10-05T23:22:07.832Z,13.37
2022-10-05T23:27:09.550Z,13.30
2022-10-05T23:32:10.954Z,13.23
2022-10-05T23:37:12.343Z,13.18
2022-10-05T23:42:13.820Z,13.12
2022-10-05T23:47:15.232Z,12.97
2022-10-05T23:52:16.705Z,12.90
2022-10-05T23:57:18.813Z,12.76
